< < Back
Terminal Aerodrome Forecast


Current Version              Previous Versions:   1  2  3  4  5  6  7  8  9  

Terminal Aerodrome Forecast

279
FTUS42 KFFC 031740
TAFMCN
TAF
KMCN 031740Z 0318/0418 27010KT 5SM -TSRA BKN030CB
     FM032200 28010KT P6SM VCSH BKN045
     FM040000 26008KT P6SM BKN060
     FM040300 28008KT P6SM SCT070
     FM041400 31011G18KT P6SM SCT045=

Latest METAR

962
SAUS80 KWBC 041700
MTRMCN
METAR KMCN 041653Z 29008KT 10SM FEW055 21/08 A2981 RMK AO2 SLP093
T02110083


USA.gov is the U.S. government's official web portal to all federal, state and local government web resources and services.